createdAt,value
2022-11-22T00:00:44.434Z,98994.13
2022-11-22T00:03:11.831Z,98996.69
2022-11-22T00:05:39.226Z,98994.38
2022-11-22T00:08:06.581Z,99000.31
2022-11-22T00:10:34.152Z,98990.41
2022-11-22T00:13:01.492Z,98996.66
2022-11-22T00:15:29.690Z,98987.81
2022-11-22T00:17:57.121Z,98986.25
2022-11-22T00:20:24.449Z,98989.50
2022-11-22T00:22:51.775Z,98982.72
2022-11-22T00:25:19.089Z,98983.09
2022-11-22T00:27:46.272Z,98986.16
2022-11-22T00:30:13.555Z,98968.03
2022-11-22T00:32:40.742Z,98980.84
2022-11-22T00:35:08.431Z,98978.06
2022-11-22T00:37:38.120Z,98977.09
2022-11-22T00:40:06.547Z,98966.84
2022-11-22T00:42:33.719Z,98970.47
2022-11-22T00:45:00.894Z,98975.69
2022-11-22T00:47:28.188Z,98967.13
2022-11-22T00:49:55.433Z,98977.09
2022-11-22T00:52:23.643Z,98970.97
2022-11-22T00:54:54.736Z,98974.66
2022-11-22T00:57:23.948Z,98981.22
2022-11-22T00:59:51.143Z,98973.47
2022-11-22T01:02:18.501Z,98976.72
2022-11-22T01:04:45.755Z,98984.13
2022-11-22T01:07:13.304Z,98996.69
2022-11-22T01:09:40.542Z,98985.41
2022-11-22T01:12:07.828Z,98975.19
2022-11-22T01:14:35.120Z,98982.59
2022-11-22T01:17:02.359Z,98974.88
2022-11-22T01:19:29.848Z,98976.34
2022-11-22T01:21:57.398Z,98970.09
2022-11-22T01:24:24.683Z,98976.88
2022-11-22T01:26:51.951Z,98982.06
2022-11-22T01:29:19.263Z,98960.72
2022-11-22T01:31:46.492Z,98964.78
2022-11-22T01:34:13.785Z,98966.63
2022-11-22T01:36:40.904Z,98975.59
2022-11-22T01:39:08.200Z,98966.25
2022-11-22T01:41:35.642Z,98963.19
2022-11-22T01:44:22.550Z,98957.69
2022-11-22T01:46:53.687Z,98959.41
2022-11-22T01:49:29.481Z,98959.19
2022-11-22T01:52:02.168Z,98954.38
2022-11-22T01:54:33.243Z,98961.53
2022-11-22T01:57:05.330Z,98965.97
2022-11-22T01:59:34.242Z,98965.25
2022-11-22T02:02:02.102Z,98970.50
2022-11-22T02:04:30.612Z,98964.94
2022-11-22T02:07:25.491Z,98979.97
2022-11-22T02:09:53.273Z,98971.50
2022-11-22T02:12:24.133Z,98972.00
2022-11-22T02:14:52.081Z,98959.88
2022-11-22T02:17:19.243Z,98961.41
2022-11-22T02:19:48.413Z,98950.19
2022-11-22T02:22:30.901Z,98944.34
2022-11-22T02:25:20.165Z,98935.72
2022-11-22T02:27:48.007Z,98938.91
2022-11-22T02:30:15.535Z,98951.09
2022-11-22T02:32:42.879Z,98936.38
2022-11-22T02:35:29.027Z,98924.06
2022-11-22T02:38:02.492Z,98927.94
2022-11-22T02:40:32.899Z,98931.22
2022-11-22T02:43:03.592Z,98929.91
2022-11-22T02:45:30.967Z,98926.72
2022-11-22T02:48:08.228Z,98929.13
2022-11-22T02:50:35.595Z,98920.97
2022-11-22T02:53:02.823Z,98918.72
2022-11-22T02:55:30.115Z,98914.25
2022-11-22T02:57:57.371Z,98907.72
2022-11-22T03:00:24.740Z,98911.66
2022-11-22T03:02:52.119Z,98903.81
2022-11-22T03:05:19.343Z,98912.38
2022-11-22T03:07:46.605Z,98905.81
2022-11-22T03:10:14.004Z,98902.03
2022-11-22T03:12:41.171Z,98891.66
2022-11-22T03:15:08.805Z,98886.69
2022-11-22T03:17:36.047Z,98891.78
2022-11-22T03:20:04.204Z,98894.53
2022-11-22T03:22:31.919Z,98900.84
2022-11-22T03:24:59.505Z,98886.50
2022-11-22T03:27:26.677Z,98892.66
2022-11-22T03:29:53.889Z,98894.03
2022-11-22T03:32:21.119Z,98884.34
2022-11-22T03:34:48.490Z,98896.84
2022-11-22T03:37:15.656Z,98890.56
2022-11-22T03:39:43.173Z,98890.41
2022-11-22T03:42:10.414Z,98890.06
2022-11-22T03:44:37.667Z,98893.75
2022-11-22T03:47:04.889Z,98882.34
2022-11-22T03:49:32.568Z,98897.78
2022-11-22T03:51:59.960Z,98885.94
2022-11-22T03:54:27.149Z,98897.66
2022-11-22T03:56:54.342Z,98890.81
2022-11-22T03:59:21.734Z,98894.91
2022-11-22T04:01:49.224Z,98898.44
2022-11-22T04:04:16.581Z,98907.16
2022-11-22T04:06:43.864Z,98890.13
2022-11-22T04:09:11.263Z,98889.38
2022-11-22T04:11:38.569Z,98886.19
2022-11-22T04:14:24.336Z,98885.50
2022-11-22T04:16:51.568Z,98885.38
2022-11-22T04:19:18.876Z,98889.19
2022-11-22T04:21:46.152Z,98893.38
2022-11-22T04:24:31.877Z,98873.91
2022-11-22T04:26:59.174Z,98869.50
2022-11-22T04:29:26.384Z,98874.34
2022-11-22T04:32:12.083Z,98873.28
2022-11-22T04:34:39.308Z,98866.41
2022-11-22T04:37:06.720Z,98849.03
2022-11-22T04:39:34.215Z,98856.28
2022-11-22T04:42:20.031Z,98842.00
2022-11-22T04:44:47.386Z,98846.72
2022-11-22T04:47:39.190Z,98838.81
2022-11-22T04:50:28.693Z,98859.19
2022-11-22T04:52:57.392Z,98854.94
2022-11-22T04:55:25.011Z,98853.09
2022-11-22T04:57:58.871Z,98856.94
2022-11-22T05:00:28.484Z,98852.31
2022-11-22T05:02:56.516Z,98861.13
2022-11-22T05:05:24.550Z,98857.97
2022-11-22T05:07:51.945Z,98859.44
2022-11-22T05:10:25.789Z,98854.28
2022-11-22T05:12:53.911Z,98858.75
2022-11-22T05:15:21.172Z,98864.69
2022-11-22T05:17:48.633Z,98859.56
2022-11-22T05:20:15.901Z,98842.50
2022-11-22T05:23:01.362Z,98858.00
2022-11-22T05:25:28.892Z,98845.72
2022-11-22T05:27:56.164Z,98850.88
2022-11-22T05:30:23.422Z,98852.91
2022-11-22T05:32:50.815Z,98855.31
2022-11-22T05:35:18.126Z,98854.69
2022-11-22T05:37:45.561Z,98853.63
2022-11-22T05:40:13.125Z,98851.63
2022-11-22T05:42:40.642Z,98857.25
2022-11-22T05:45:08.719Z,98857.47
2022-11-22T05:47:36.496Z,98862.28
2022-11-22T05:50:04.166Z,98863.13
2022-11-22T05:52:31.744Z,98865.19
2022-11-22T05:54:59.000Z,98875.16
2022-11-22T05:57:26.597Z,98873.66
2022-11-22T05:59:54.507Z,98869.97
2022-11-22T06:02:21.719Z,98876.63
2022-11-22T06:04:49.127Z,98873.00
2022-11-22T06:07:16.303Z,98863.13
2022-11-22T06:09:43.614Z,98857.53
2022-11-22T06:12:10.793Z,98863.31
2022-11-22T06:14:42.926Z,98850.75
2022-11-22T06:17:11.363Z,98857.47
2022-11-22T06:19:38.510Z,98845.25
2022-11-22T06:22:06.179Z,98848.28
2022-11-22T06:24:33.367Z,98844.41
2022-11-22T06:27:00.680Z,98854.91
2022-11-22T06:29:28.025Z,98860.75
2022-11-22T06:32:01.913Z,98856.38
2022-11-22T06:34:30.643Z,98861.41
2022-11-22T06:36:57.911Z,98870.31
2022-11-22T06:39:25.103Z,98870.63
2022-11-22T06:41:52.323Z,98872.84
2022-11-22T06:44:19.592Z,98874.78
2022-11-22T06:46:46.764Z,98866.97
2022-11-22T06:49:15.062Z,98862.28
2022-11-22T06:51:42.218Z,98867.13
2022-11-22T06:54:12.448Z,98868.03
2022-11-22T06:56:39.930Z,98871.19
2022-11-22T06:59:07.775Z,98883.41
2022-11-22T07:01:37.371Z,98876.38
2022-11-22T07:04:05.430Z,98872.72
2022-11-22T07:06:34.632Z,98882.22
2022-11-22T07:09:04.217Z,98880.69
2022-11-22T07:11:32.110Z,98887.00
2022-11-22T07:14:07.808Z,98886.84
2022-11-22T07:16:39.180Z,98891.69
2022-11-22T07:19:07.231Z,98890.06
2022-11-22T07:21:35.031Z,98885.16
2022-11-22T07:24:04.152Z,98897.16
2022-11-22T07:26:31.451Z,98897.41
2022-11-22T07:28:58.868Z,98899.25
2022-11-22T07:31:26.544Z,98912.81
2022-11-22T07:33:55.739Z,98911.00
2022-11-22T07:36:23.403Z,98932.16
2022-11-22T07:38:51.005Z,98930.25
2022-11-22T07:41:19.712Z,98936.78
2022-11-22T07:43:47.370Z,98934.66
2022-11-22T07:46:19.817Z,98924.28
2022-11-22T07:48:49.541Z,98924.97
2022-11-22T07:51:16.997Z,98924.19
2022-11-22T07:53:44.331Z,98913.06
2022-11-22T07:56:11.555Z,98929.25
2022-11-22T07:58:38.976Z,98926.00
2022-11-22T08:01:09.155Z,98930.66
2022-11-22T08:03:37.258Z,98934.53
2022-11-22T08:06:06.543Z,98931.69
2022-11-22T08:08:34.824Z,98935.44
2022-11-22T08:11:02.341Z,98930.66
2022-11-22T08:13:29.651Z,98938.31
2022-11-22T08:16:05.056Z,98941.69
2022-11-22T08:18:34.909Z,98936.41
2022-11-22T08:21:04.182Z,98932.69
2022-11-22T08:23:31.638Z,98947.09
2022-11-22T08:25:59.606Z,98934.31
2022-11-22T08:28:27.114Z,98953.53
2022-11-22T08:31:06.245Z,98949.94
2022-11-22T08:33:33.680Z,98937.63
2022-11-22T08:36:01.084Z,98946.72
2022-11-22T08:38:28.363Z,98951.31
2022-11-22T08:40:58.311Z,98949.34
2022-11-22T08:43:25.861Z,98956.03
2022-11-22T08:45:57.458Z,98959.94
2022-11-22T08:48:26.072Z,98960.72
2022-11-22T08:50:55.325Z,98969.97
2022-11-22T08:53:23.201Z,98958.09
2022-11-22T08:55:50.545Z,98951.44
2022-11-22T08:58:18.013Z,98955.09
2022-11-22T09:00:45.292Z,98970.19
2022-11-22T09:03:12.624Z,98968.63
2022-11-22T09:08:28.885Z,98970.22
2022-11-22T09:11:02.740Z,98953.34
2022-11-22T09:13:30.442Z,98966.16
2022-11-22T09:16:10.631Z,98974.25
2022-11-22T09:18:37.749Z,98972.94
2022-11-22T09:21:10.138Z,98972.16
2022-11-22T09:23:37.957Z,98971.47
2022-11-22T09:26:07.958Z,98980.50
2022-11-22T09:28:35.768Z,98992.34
2022-11-22T09:31:11.362Z,98970.03
2022-11-22T09:33:40.465Z,98967.34
2022-11-22T09:36:28.168Z,98988.53
2022-11-22T09:38:58.880Z,98979.84
2022-11-22T09:41:46.311Z,98982.34
2022-11-22T09:44:24.404Z,98987.66
2022-11-22T09:46:56.543Z,98983.56
2022-11-22T09:49:23.754Z,98984.72
2022-11-22T09:52:07.970Z,98977.47
2022-11-22T09:54:40.702Z,98979.16
2022-11-22T09:57:13.533Z,98971.03
2022-11-22T09:59:43.801Z,98976.31
2022-11-22T10:02:20.649Z,98996.00
2022-11-22T10:05:00.404Z,98982.47
2022-11-22T10:07:30.577Z,99001.22
2022-11-22T10:10:15.259Z,98993.56
2022-11-22T10:13:09.399Z,98993.31
2022-11-22T10:15:39.664Z,98986.00
2022-11-22T10:18:17.396Z,98998.41
2022-11-22T10:20:48.832Z,98997.72
2022-11-22T10:23:26.358Z,99004.91
2022-11-22T10:26:21.947Z,98997.97
2022-11-22T10:29:12.202Z,98996.88
2022-11-22T10:31:41.871Z,98998.00
2022-11-22T10:34:17.120Z,98993.16
2022-11-22T10:37:13.475Z,99000.78
2022-11-22T10:39:46.509Z,99012.75
2022-11-22T10:42:38.490Z,99018.31
2022-11-22T10:45:11.498Z,99005.75
2022-11-22T10:48:07.489Z,99009.75
2022-11-22T10:50:53.293Z,99007.31
2022-11-22T10:53:39.458Z,99009.66
2022-11-22T10:56:29.555Z,99019.09
2022-11-22T10:59:25.703Z,99015.72
2022-11-22T11:02:17.785Z,99018.38
2022-11-22T11:04:46.084Z,99024.28
2022-11-22T11:07:21.787Z,99030.28
2022-11-22T11:10:26.276Z,99021.44
2022-11-22T11:13:08.014Z,99020.09
2022-11-22T11:15:38.625Z,99036.44
2022-11-22T11:18:12.172Z,99035.72
2022-11-22T11:20:42.377Z,99029.16
2022-11-22T11:23:15.127Z,99039.28
2022-11-22T11:25:44.713Z,99033.97
2022-11-22T11:28:20.730Z,99036.19
2022-11-22T11:31:08.165Z,99035.31
2022-11-22T11:33:38.515Z,99044.53
2022-11-22T11:36:07.435Z,99050.69
2022-11-22T11:38:40.788Z,99038.13
2022-11-22T11:41:38.644Z,99041.50
2022-11-22T11:44:29.188Z,99026.34
2022-11-22T11:46:57.659Z,99026.22
2022-11-22T11:49:26.662Z,99030.25
2022-11-22T11:51:55.404Z,99027.72
2022-11-22T11:54:23.254Z,99030.69
2022-11-22T11:57:01.439Z,99035.69
2022-11-22T11:59:37.832Z,99036.50
2022-11-22T12:02:23.182Z,99038.78
2022-11-22T12:04:54.996Z,99036.78
2022-11-22T12:07:35.066Z,99040.00
2022-11-22T12:10:03.333Z,99052.63
2022-11-22T12:12:45.648Z,99061.16
2022-11-22T12:15:20.664Z,99064.78
2022-11-22T12:18:18.080Z,99051.09
2022-11-22T12:21:13.869Z,99048.72
2022-11-22T12:24:13.524Z,99050.63
2022-11-22T12:26:46.591Z,99054.97
2022-11-22T12:29:14.816Z,99065.56
2022-11-22T12:32:12.079Z,99061.91
2022-11-22T12:34:42.424Z,99070.59
2022-11-22T12:37:15.103Z,99069.41
2022-11-22T12:39:48.249Z,99067.31
2022-11-22T12:42:37.157Z,99071.00
2022-11-22T12:45:39.132Z,99067.84
2022-11-22T12:48:12.522Z,99068.69
2022-11-22T12:51:13.559Z,99070.75
2022-11-22T12:53:42.874Z,99067.16
2022-11-22T12:56:10.098Z,99070.66
2022-11-22T12:58:55.753Z,99067.06
2022-11-22T13:01:32.420Z,99064.50
2022-11-22T13:04:03.529Z,99060.84
2022-11-22T13:06:45.772Z,99069.66
2022-11-22T13:09:18.203Z,99067.63
2022-11-22T13:11:50.934Z,99072.16
2022-11-22T13:14:21.657Z,99072.47
2022-11-22T13:16:51.933Z,99069.44
2022-11-22T13:19:23.040Z,99072.31
2022-11-22T13:22:08.941Z,99080.50
2022-11-22T13:25:02.382Z,99070.75
2022-11-22T13:27:32.114Z,99082.94
2022-11-22T13:30:01.353Z,99079.88
2022-11-22T13:32:31.999Z,99087.56
2022-11-22T13:35:24.104Z,99083.91
2022-11-22T13:37:54.256Z,99082.28
2022-11-22T13:40:21.372Z,99072.03
2022-11-22T13:42:48.572Z,99072.38
2022-11-22T13:45:23.956Z,99071.63
2022-11-22T13:47:51.672Z,99082.38
2022-11-22T13:50:37.696Z,99075.94
2022-11-22T13:53:17.166Z,99086.69
2022-11-22T13:55:44.784Z,99076.03
2022-11-22T13:58:23.937Z,99076.03
2022-11-22T14:00:55.649Z,99076.06
2022-11-22T14:03:35.280Z,99075.59
2022-11-22T14:06:25.937Z,99057.38
2022-11-22T14:09:36.234Z,99062.56
2022-11-22T14:12:06.126Z,99051.22
2022-11-22T14:14:51.147Z,99055.97
2022-11-22T14:17:30.223Z,99057.72
2022-11-22T14:20:22.804Z,99060.16
2022-11-22T14:23:18.901Z,99060.81
2022-11-22T14:25:56.225Z,99068.00
2022-11-22T14:29:04.668Z,99076.41
2022-11-22T14:31:33.830Z,99080.72
2022-11-22T14:34:21.273Z,99072.38
2022-11-22T14:37:11.694Z,99074.00
2022-11-22T14:39:44.999Z,99070.06
2022-11-22T14:42:37.588Z,99079.19
2022-11-22T14:45:10.701Z,99074.84
2022-11-22T14:47:53.250Z,99064.84
2022-11-22T14:50:26.015Z,99066.44
2022-11-22T14:52:55.945Z,99070.81
2022-11-22T14:55:30.083Z,99072.50
2022-11-22T14:58:02.753Z,99063.47
2022-11-22T15:01:13.027Z,99070.16
2022-11-22T15:03:48.687Z,99066.47
2022-11-22T15:09:12.365Z,99061.53
2022-11-22T15:09:51.036Z,99061.75
2022-11-22T15:12:36.030Z,99072.41
2022-11-22T15:59:42.592Z,99094.59
2022-11-22T16:02:19.788Z,99091.06
2022-11-22T16:06:03.470Z,99104.44
2022-11-22T16:07:43.304Z,99096.47
2022-11-22T16:10:16.821Z,99103.72
2022-11-22T16:12:44.135Z,99101.28
2022-11-22T16:15:28.228Z,99107.25
2022-11-22T16:18:27.560Z,99109.66
2022-11-22T16:21:13.970Z,99112.16
2022-11-22T16:23:41.953Z,99114.03
2022-11-22T16:26:24.964Z,99114.81
2022-11-22T16:28:53.818Z,99111.25
2022-11-22T16:31:31.400Z,99122.09
2022-11-22T16:33:58.701Z,99116.63
2022-11-22T16:36:29.274Z,99122.13
2022-11-22T16:38:56.625Z,99118.56
2022-11-22T16:41:28.534Z,99118.22
2022-11-22T16:43:59.912Z,99136.56
2022-11-22T16:46:27.460Z,99125.13
2022-11-22T16:48:55.827Z,99131.84
2022-11-22T16:51:25.001Z,99134.25
2022-11-22T16:53:53.352Z,99131.06
2022-11-22T16:56:21.614Z,99133.13
2022-11-22T16:58:49.777Z,99131.13
2022-11-22T17:01:20.158Z,99131.50
2022-11-22T17:03:48.793Z,99135.88
2022-11-22T17:06:18.970Z,99144.56
2022-11-22T17:08:46.728Z,99135.81
2022-11-22T17:11:16.584Z,99140.94
2022-11-22T17:13:44.342Z,99141.97
2022-11-22T17:16:12.536Z,99148.72
2022-11-22T17:18:40.037Z,99150.03
2022-11-22T17:21:16.429Z,99150.56
2022-11-22T17:23:44.008Z,99157.31
2022-11-22T17:26:11.402Z,99163.66
2022-11-22T17:28:38.648Z,99156.69
2022-11-22T17:31:12.310Z,99155.53
2022-11-22T17:33:39.553Z,99155.94
2022-11-22T17:36:17.591Z,99157.25
2022-11-22T17:38:44.894Z,99168.34
2022-11-22T17:41:12.133Z,99168.31
2022-11-22T17:43:39.611Z,99173.13
2022-11-22T17:46:06.892Z,99169.09
2022-11-22T17:48:34.360Z,99171.44
2022-11-22T17:51:11.946Z,99187.78
2022-11-22T17:53:39.699Z,99185.34
2022-11-22T17:56:11.393Z,99195.34
2022-11-22T17:58:40.086Z,99195.75
2022-11-22T18:01:10.943Z,99201.75
2022-11-22T18:03:39.901Z,99209.28
2022-11-22T18:06:07.889Z,99192.88
2022-11-22T18:08:35.337Z,99196.09
2022-11-22T18:11:02.951Z,99196.13
2022-11-22T18:13:33.427Z,99184.56
2022-11-22T18:16:03.694Z,99187.53
2022-11-22T18:21:19.862Z,99198.34
2022-11-22T18:23:47.048Z,99196.44
2022-11-22T18:26:38.395Z,99194.41
2022-11-22T18:31:53.129Z,99200.09
2022-11-22T18:34:21.670Z,99201.22
2022-11-22T18:39:39.090Z,99191.56
2022-11-22T18:42:10.949Z,99189.16
2022-11-22T18:44:38.316Z,99188.75
2022-11-22T18:47:05.675Z,99199.78
2022-11-22T18:49:33.324Z,99198.66
2022-11-22T18:52:00.836Z,99199.47
2022-11-22T18:54:28.099Z,99210.91
2022-11-22T18:56:55.376Z,99216.09
2022-11-22T18:59:23.147Z,99218.00
2022-11-22T19:01:50.331Z,99221.75
2022-11-22T19:04:17.607Z,99220.06
2022-11-22T19:06:45.098Z,99228.06
2022-11-22T19:09:12.314Z,99219.25
2022-11-22T19:11:40.187Z,99220.09
2022-11-22T19:14:07.822Z,99220.00
2022-11-22T19:16:35.167Z,99225.91
2022-11-22T19:19:02.428Z,99225.22
2022-11-22T19:21:30.309Z,99237.44
2022-11-22T19:23:57.660Z,99238.75
2022-11-22T19:26:27.282Z,99239.44
2022-11-22T19:28:56.507Z,99240.59
2022-11-22T19:31:25.956Z,99244.06
2022-11-22T19:33:53.574Z,99243.28
2022-11-22T19:36:26.360Z,99243.28
2022-11-22T19:38:58.490Z,99241.78
2022-11-22T19:41:26.799Z,99237.34
2022-11-22T19:43:55.881Z,99253.97
2022-11-22T19:46:23.936Z,99254.06
2022-11-22T19:48:52.213Z,99252.38
2022-11-22T19:51:19.784Z,99248.81
2022-11-22T19:53:47.014Z,99265.19
2022-11-22T19:56:16.534Z,99262.75
2022-11-22T19:58:44.754Z,99258.00
2022-11-22T20:01:13.330Z,99263.94
2022-11-22T20:03:41.858Z,99283.41
2022-11-22T20:06:11.840Z,99267.25
2022-11-22T20:08:39.593Z,99284.50
2022-11-22T20:11:12.773Z,99282.06
2022-11-22T20:13:42.651Z,99285.81
2022-11-22T20:16:14.061Z,99281.22
2022-11-22T20:18:41.349Z,99285.53
2022-11-22T20:21:10.258Z,99291.91
2022-11-22T20:23:38.490Z,99298.38
2022-11-22T20:26:11.915Z,99297.88
2022-11-22T20:28:39.870Z,99299.00
2022-11-22T20:31:15.168Z,99303.09
2022-11-22T20:33:44.352Z,99301.50
2022-11-22T20:36:14.053Z,99299.09
2022-11-22T20:38:42.543Z,99299.84
2022-11-22T20:41:11.398Z,99288.75
2022-11-22T20:43:38.783Z,99293.16
2022-11-22T20:46:08.811Z,99286.19
2022-11-22T20:48:38.003Z,99295.00
2022-11-22T20:51:08.116Z,99300.25
2022-11-22T20:53:35.369Z,99292.63
2022-11-22T20:56:04.420Z,99295.47
2022-11-22T20:58:32.560Z,99295.00
2022-11-22T21:01:00.192Z,99312.03
2022-11-22T21:03:27.470Z,99322.78
2022-11-22T21:05:55.379Z,99317.16
2022-11-22T21:08:23.056Z,99310.03
2022-11-22T21:10:50.345Z,99324.25
2022-11-22T21:13:17.662Z,99319.47
2022-11-22T21:15:45.091Z,99330.91
2022-11-22T21:18:27.600Z,99332.88
2022-11-22T21:20:55.105Z,99335.03
2022-11-22T21:23:22.262Z,99331.19
2022-11-22T21:25:50.505Z,99341.16
2022-11-22T21:28:17.868Z,99341.31
2022-11-22T21:30:45.151Z,99344.06
2022-11-22T21:33:12.332Z,99343.50
2022-11-22T21:35:39.647Z,99348.75
2022-11-22T21:38:07.089Z,99347.13
2022-11-22T21:40:34.327Z,99350.41
2022-11-22T21:43:01.506Z,99346.75
2022-11-22T21:45:28.795Z,99352.91
2022-11-22T21:47:56.115Z,99360.03
2022-11-22T21:50:23.391Z,99355.47
2022-11-22T21:52:50.595Z,99355.41
2022-11-22T21:55:17.798Z,99356.13
2022-11-22T21:57:44.973Z,99362.06
2022-11-22T22:00:12.823Z,99360.56
2022-11-22T22:02:40.044Z,99354.41
2022-11-22T22:05:07.823Z,99358.31
2022-11-22T22:07:52.266Z,99367.72
2022-11-22T22:10:20.444Z,99369.78
2022-11-22T22:12:50.873Z,99369.94
2022-11-22T22:15:18.698Z,99365.19
2022-11-22T22:17:45.961Z,99366.09
2022-11-22T22:20:13.415Z,99368.69
2022-11-22T22:22:40.665Z,99364.22
2022-11-22T22:25:08.323Z,99373.69
2022-11-22T22:27:39.078Z,99381.53
2022-11-22T22:30:08.088Z,99385.22
2022-11-22T22:32:35.954Z,99378.31
2022-11-22T22:35:05.681Z,99376.91
2022-11-22T22:37:35.189Z,99392.84
2022-11-22T22:40:02.681Z,99389.06
2022-11-22T22:42:29.930Z,99392.38
2022-11-22T22:44:57.189Z,99394.56
2022-11-22T22:47:24.520Z,99395.41
2022-11-22T22:49:51.776Z,99388.31
2022-11-22T22:52:19.007Z,99395.72
2022-11-22T22:54:46.204Z,99389.78
2022-11-22T22:57:13.428Z,99388.59
2022-11-22T22:59:41.781Z,99389.34
2022-11-22T23:02:08.942Z,99391.63
2022-11-22T23:04:37.447Z,99398.38
2022-11-22T23:07:04.678Z,99401.22
2022-11-22T23:09:32.285Z,99395.56
2022-11-22T23:12:11.768Z,99395.44
2022-11-22T23:14:39.920Z,99395.00
2022-11-22T23:17:08.599Z,99392.78
2022-11-22T23:19:35.810Z,99397.44
2022-11-22T23:22:03.361Z,99393.53
2022-11-22T23:24:32.280Z,99395.00
2022-11-22T23:26:59.844Z,99395.84
2022-11-22T23:29:27.360Z,99399.81
2022-11-22T23:31:54.628Z,99406.41
2022-11-22T23:34:21.911Z,99409.09
2022-11-22T23:36:49.169Z,99404.91
2022-11-22T23:39:16.428Z,99398.50
2022-11-22T23:41:45.040Z,99412.34
2022-11-22T23:44:12.339Z,99407.09
2022-11-22T23:46:39.644Z,99418.97
2022-11-22T23:49:06.904Z,99412.31
2022-11-22T23:51:35.336Z,99428.50
2022-11-22T23:54:05.212Z,99420.56
2022-11-22T23:56:34.430Z,99422.19
2022-11-22T23:59:02.264Z,99415.47
